Latest Weather Observations for Fawkner Beacon

IDV60801

Issued at 10:02 am EDT Friday 27 February 2015 (issued every 30 minutes, with the page automatically refreshed every 10 minutes)

About weather observations | Map of weather stations | Latest weather observations for VIC | Other Formats
Station Details ID: 086376 Name: FAWKNER BEACON Lat: -37.91 Lon: 144.93 Height: 17.0 m
Data from the previous 72 hours. | See also: Recent months for locations in Victoria
Date/Time
EDT
Temp
°C
App
Temp
°C
Dew
Point
Rel
Hum
%
Delta-T
°C
Wind Press
QNH
hPa
Press
MSL
hPa
Rain
since 9 am
mm
Dir
 
Spd
km/h
Gust
km/h
Spd
kts
Gust
kts
27/10:00am - - - - - NW 7 11 4 6 - - -
27/09:30am - - - - - NW 9 11 5 6 - - -
27/09:00am - - - - - NW 9 15 5 8 - - -
27/08:30am - - - - - NNW 11 17 6 9 - - -
27/08:00am - - - - - N 9 13 5 7 - - -
27/07:30am - - - - - N 9 11 5 6 - - -
27/07:00am - - - - - N 9 11 5 6 - - -
27/06:30am - - - - - N 9 13 5 7 - - -
27/06:00am - - - - - NNE 7 11 4 6 - - -
27/05:30am - - - - - NNE 6 9 3 5 - - -
27/05:00am - - - - - NE 7 9 4 5 - - -
27/04:30am - - - - - ESE 7 9 4 5 - - -
27/04:00am - - - - - E 7 9 4 5 - - -
27/03:30am - - - - - SE 6 7 3 4 - - -
27/03:00am - - - - - SE 9 11 5 6 - - -
27/02:30am - - - - - E 9 15 5 8 - - -
27/02:00am - - - - - E 13 17 7 9 - - -
27/01:30am - - - - - ESE 13 17 7 9 - - -
27/01:00am - - - - - ESE 13 17 7 9 - - -
27/12:30am - - - - - SE 13 17 7 9 - - -
 
Date/Time
EDT
Temp
°C
App
Temp
°C
Dew
Point
Rel
Hum
%
Delta-T
°C
Wind Press
QNH
hPa
Press
MSL
hPa
Rain
since 9 am
mm
Dir
 
Spd
km/h
Gust
km/h
Spd
kts
Gust
kts
26/11:30pm - - - - - SE 15 20 8 11 - - -
26/11:00pm - - - - - SE 19 22 10 12 - - -
26/10:30pm - - - - - SE 22 24 12 13 - - -
26/10:00pm - - - - - SSE 22 28 12 15 - - -
26/09:30pm - - - - - SSE 24 28 13 15 - - -
26/09:00pm - - - - - SSE 24 28 13 15 - - -
26/08:30pm - - - - - SSE 28 32 15 17 - - -
26/08:00pm - - - - - SSE 32 33 17 18 - - -
26/07:30pm - - - - - S 32 33 17 18 - - -
26/07:00pm - - - - - S 30 33 16 18 - - -
26/06:30pm - - - - - S 28 30 15 16 - - -
26/06:00pm - - - - - SSE 26 30 14 16 - - -
26/05:30pm - - - - - SSE 28 32 15 17 - - -
26/05:00pm - - - - - SSE 24 28 13 15 - - -
26/04:30pm - - - - - SSE 22 26 12 14 - - -
26/04:00pm - - - - - SSE 24 28 13 15 - - -
26/03:30pm - - - - - SSE 26 30 14 16 - - -
26/03:00pm - - - - - SSE 28 30 15 16 - - -
26/02:30pm - - - - - SSE 26 30 14 16 - - -
26/02:00pm - - - - - SSE 24 28 13 15 - - -
26/01:30pm - - - - - S 22 28 12 15 - - -
26/01:00pm - - - - - S 22 26 12 14 - - -
26/12:30pm - - - - - S 11 13 6 7 - - -
26/12:00pm - - - - - SSW 11 17 6 9 - - -
26/11:30am - - - - - SW 13 17 7 9 - - -
26/11:00am - - - - - SW 13 17 7 9 - - -
26/10:30am - - - - - WSW 15 20 8 11 - - -
26/10:00am - - - - - WSW 22 26 12 14 - - -
26/09:30am - - - - - WSW 26 30 14 16 - - -
26/09:00am - - - - - WSW 32 35 17 19 - - -
26/08:30am - - - - - WSW 28 32 15 17 - - -
26/08:00am - - - - - WSW 32 39 17 21 - - -
26/07:30am - - - - - WSW 28 33 15 18 - - -
26/07:00am - - - - - WSW 20 24 11 13 - - -
26/06:30am - - - - - W 17 22 9 12 - - -
26/06:00am - - - - - WSW 15 20 8 11 - - -
26/05:30am - - - - - W 17 22 9 12 - - -
26/05:00am - - - - - WSW 15 20 8 11 - - -
26/04:30am - - - - - WSW 19 22 10 12 - - -
26/04:00am - - - - - SW 20 24 11 13 - - -
26/03:30am - - - - - WSW 24 28 13 15 - - -
26/03:00am - - - - - SW 17 24 9 13 - - -
26/02:30am - - - - - SSW 15 20 8 11 - - -
26/02:00am - - - - - SSW 9 13 5 7 - - -
26/01:30am - - - - - ESE 6 7 3 4 - - -
26/01:00am - - - - - E 9 13 5 7 - - -
26/12:30am - - - - - E 11 13 6 7 - - -
26/12:00am - - - - - E 9 11 5 6 - - -
 
Date/Time
EDT
Temp
°C
App
Temp
°C
Dew
Point
Rel
Hum
%
Delta-T
°C
Wind Press
QNH
hPa
Press
MSL
hPa
Rain
since 9 am
mm
Dir
 
Spd
km/h
Gust
km/h
Spd
kts
Gust
kts
25/11:30pm - - - - - E 17 20 9 11 - - -
25/11:00pm - - - - - ESE 17 20 9 11 - - -
25/10:30pm - - - - - E 20 24 11 13 - - -
25/10:00pm - - - - - E 24 28 13 15 - - -
25/09:30pm - - - - - E 24 28 13 15 - - -
25/09:00pm - - - - - E 26 30 14 16 - - -
25/08:30pm - - - - - E 30 35 16 19 - - -
25/08:00pm - - - - - E 30 35 16 19 - - -
25/07:30pm - - - - - E 32 35 17 19 - - -
25/07:00pm - - - - - E 32 39 17 21 - - -
25/06:30pm - - - - - ESE 30 35 16 19 - - -
25/06:00pm - - - - - ESE 22 24 12 13 - - -
25/05:30pm - - - - - S 20 24 11 13 - - -
25/05:00pm - - - - - S 22 24 12 13 - - -
25/04:30pm - - - - - S 20 22 11 12 - - -
25/04:00pm - - - - - S 19 22 10 12 - - -
25/03:30pm - - - - - S 17 20 9 11 - - -
25/03:00pm - - - - - S 15 17 8 9 - - -
25/02:30pm - - - - - SSW 15 17 8 9 - - -
25/02:00pm - - - - - SSW 13 15 7 8 - - -
25/01:30pm - - - - - SW 11 15 6 8 - - -
25/01:00pm - - - - - WSW 11 13 6 7 - - -
25/12:30pm - - - - - WSW 9 13 5 7 - - -
25/12:00pm - - - - - WSW 7 11 4 6 - - -
25/11:30am - - - - - NNW 6 7 3 4 - - -
25/11:00am - - - - - N 6 9 3 5 - - -
25/10:30am - - - - - NNE 4 7 2 4 - - -
25/10:00am - - - - - NNE 7 11 4 6 - - -
25/09:30am - - - - - NNE 7 11 4 6 - - -
25/09:00am - - - - - NNE 9 13 5 7 - - -
25/08:30am - - - - - NNE 9 11 5 6 - - -
25/08:00am - - - - - NNE 9 13 5 7 - - -
25/07:30am - - - - - NE 9 13 5 7 - - -
25/07:00am - - - - - NNE 13 17 7 9 - - -
25/06:30am - - - - - NE 13 17 7 9 - - -
25/06:00am - - - - - ENE 24 28 13 15 - - -
25/05:30am - - - - - ENE 24 28 13 15 - - -
25/05:00am - - - - - ENE 26 32 14 17 - - -
25/04:30am - - - - - E 26 33 14 18 - - -
25/04:00am - - - - - E 30 39 16 21 - - -
25/03:30am - - - - - E 32 39 17 21 - - -
25/03:00am - - - - - E 43 50 23 27 - - -
25/02:30am - - - - - E 46 54 25 29 - - -
25/02:00am - - - - - E 44 52 24 28 - - -
25/01:30am - - - - - E 41 50 22 27 - - -
25/01:00am - - - - - ESE 37 44 20 24 - - -
25/12:30am - - - - - ESE 32 39 17 21 - - -
25/12:00am - - - - - ESE 28 33 15 18 - - -
 
Date/Time
EDT
Temp
°C
App
Temp
°C
Dew
Point
Rel
Hum
%
Delta-T
°C
Wind Press
QNH
hPa
Press
MSL
hPa
Rain
since 9 am
mm
Dir
 
Spd
km/h
Gust
km/h
Spd
kts
Gust
kts
24/11:30pm - - - - - E 32 41 17 22 - - -
24/11:00pm - - - - - SE 33 41 18 22 - - -
24/10:30pm - - - - - SSE 32 39 17 21 - - -
24/10:00pm - - - - - SSE 32 39 17 21 - - -
24/09:30pm - - - - - SSE 32 39 17 21 - - -
24/09:00pm - - - - - SSE 30 35 16 19 - - -
24/08:30pm - - - - - SSE 32 41 17 22 - - -
24/08:00pm - - - - - SSE 30 39 16 21 - - -
24/07:30pm - - - - - SSE 30 35 16 19 - - -
24/07:00pm - - - - - S 28 33 15 18 - - -
24/06:30pm - - - - - SSE 28 33 15 18 - - -
24/06:00pm - - - - - SSE 28 33 15 18 - - -
24/05:30pm - - - - - SSE 30 39 16 21 - - -
24/05:00pm - - - - - SSE 28 35 15 19 - - -
24/04:30pm - - - - - SSE 32 39 17 21 - - -
24/04:00pm - - - - - SSE 32 41 17 22 - - -
24/03:30pm - - - - - SSE 33 43 18 23 - - -
24/03:00pm - - - - - SSE 32 41 17 22 - - -
24/02:30pm - - - - - SE 32 41 17 22 - - -
24/02:00pm - - - - - SSE 30 35 16 19 - - -
24/01:30pm - - - - - SE 26 32 14 17 - - -
24/01:00pm - - - - - SSE 28 35 15 19 - - -
24/12:30pm - - - - - SSE 32 39 17 21 - - -
24/12:00pm - - - - - SSE 28 35 15 19 - - -
24/11:30am - - - - - SE 30 39 16 21 - - -
24/11:00am - - - - - SE 26 32 14 17 - - -
24/10:30am - - - - - SE 28 41 15 22 - - -

Other Formats:

Comma delimited format used in spreadsheet applications
http://www.bom.gov.au/fwo/IDV60801/IDV60801.95872.axf

JavaScript Object Notation format (JSON) in row-major order
http://www.bom.gov.au/fwo/IDV60801/IDV60801.95872.json